sensor_id;sensor_type;location;lat;lon;timestamp;pressure;altitude;pressure_sealevel;temperature
72278;BMP280;61204;49.980;8.358;2022-12-18T00:01:32;101964.91;;;-8.66
72278;BMP280;61204;49.980;8.358;2022-12-18T00:04:02;101964.97;;;-8.73
72278;BMP280;61204;49.980;8.358;2022-12-18T00:06:31;101963.16;;;-8.80
72278;BMP280;61204;49.980;8.358;2022-12-18T00:08:59;101963.19;;;-8.83
72278;BMP280;61204;49.980;8.358;2022-12-18T00:11:28;101954.91;;;-8.89
72278;BMP280;61204;49.980;8.358;2022-12-18T00:13:57;101966.34;;;-8.92
72278;BMP280;61204;49.980;8.358;2022-12-18T00:16:26;101968.34;;;-9.00
72278;BMP280;61204;49.980;8.358;2022-12-18T00:18:55;101961.94;;;-9.02
72278;BMP280;61204;49.980;8.358;2022-12-18T00:21:22;101962.69;;;-9.02
72278;BMP280;61204;49.980;8.358;2022-12-18T00:23:49;101958.88;;;-9.01
72278;BMP280;61204;49.980;8.358;2022-12-18T00:26:18;101964.31;;;-9.12
72278;BMP280;61204;49.980;8.358;2022-12-18T00:28:50;101962.84;;;-9.16
72278;BMP280;61204;49.980;8.358;2022-12-18T00:31:19;101961.00;;;-9.23
72278;BMP280;61204;49.980;8.358;2022-12-18T00:33:48;101964.41;;;-9.22
72278;BMP280;61204;49.980;8.358;2022-12-18T00:36:16;101955.75;;;-9.30
72278;BMP280;61204;49.980;8.358;2022-12-18T00:38:46;101954.22;;;-9.27
72278;BMP280;61204;49.980;8.358;2022-12-18T00:41:15;101961.50;;;-9.32
72278;BMP280;61204;49.980;8.358;2022-12-18T00:44:03;101972.91;;;-9.35
72278;BMP280;61204;49.980;8.358;2022-12-18T00:46:31;101961.88;;;-9.37
72278;BMP280;61204;49.980;8.358;2022-12-18T00:48:58;101965.38;;;-9.40
72278;BMP280;61204;49.980;8.358;2022-12-18T00:51:24;101961.19;;;-9.41
72278;BMP280;61204;49.980;8.358;2022-12-18T00:53:50;101966.91;;;-9.42
72278;BMP280;61204;49.980;8.358;2022-12-18T00:56:17;101968.06;;;-9.43
72278;BMP280;61204;49.980;8.358;2022-12-18T00:58:42;101970.72;;;-9.43
72278;BMP280;61204;49.980;8.358;2022-12-18T01:01:08;101966.94;;;-9.46
72278;BMP280;61204;49.980;8.358;2022-12-18T01:03:33;101969.97;;;-9.44
72278;BMP280;61204;49.980;8.358;2022-12-18T01:06:08;101966.53;;;-9.44
72278;BMP280;61204;49.980;8.358;2022-12-18T01:08:37;101967.72;;;-9.49
72278;BMP280;61204;49.980;8.358;2022-12-18T01:11:08;101964.00;;;-9.55
72278;BMP280;61204;49.980;8.358;2022-12-18T01:13:37;101968.19;;;-9.58
72278;BMP280;61204;49.980;8.358;2022-12-18T01:16:04;101968.63;;;-9.63
72278;BMP280;61204;49.980;8.358;2022-12-18T01:18:31;101976.19;;;-9.65
72278;BMP280;61204;49.980;8.358;2022-12-18T01:20:57;101973.59;;;-9.68
72278;BMP280;61204;49.980;8.358;2022-12-18T01:23:22;101973.97;;;-9.66
72278;BMP280;61204;49.980;8.358;2022-12-18T01:25:48;101967.16;;;-9.71
72278;BMP280;61204;49.980;8.358;2022-12-18T01:28:13;101984.63;;;-9.70
72278;BMP280;61204;49.980;8.358;2022-12-18T01:30:39;101978.19;;;-9.72
72278;BMP280;61204;49.980;8.358;2022-12-18T01:33:05;101983.13;;;-9.74
72278;BMP280;61204;49.980;8.358;2022-12-18T01:35:31;101984.25;;;-9.72
72278;BMP280;61204;49.980;8.358;2022-12-18T01:37:57;101998.63;;;-9.69
72278;BMP280;61204;49.980;8.358;2022-12-18T01:40:23;102003.59;;;-9.71
72278;BMP280;61204;49.980;8.358;2022-12-18T01:42:51;101997.44;;;-9.65
72278;BMP280;61204;49.980;8.358;2022-12-18T01:48:03;101994.78;;;-9.61
72278;BMP280;61204;49.980;8.358;2022-12-18T01:50:36;101997.44;;;-9.65
72278;BMP280;61204;49.980;8.358;2022-12-18T01:53:14;101993.31;;;-9.69
72278;BMP280;61204;49.980;8.358;2022-12-18T01:55:51;101992.97;;;-9.75
72278;BMP280;61204;49.980;8.358;2022-12-18T01:58:24;101982.75;;;-9.77
72278;BMP280;61204;49.980;8.358;2022-12-18T02:01:01;101974.38;;;-9.75
72278;BMP280;61204;49.980;8.358;2022-12-18T02:03:27;101974.75;;;-9.73
72278;BMP280;61204;49.980;8.358;2022-12-18T02:06:13;101983.06;;;-9.67
72278;BMP280;61204;49.980;8.358;2022-12-18T02:14:44;101977.53;;;-9.42
72278;BMP280;61204;49.980;8.358;2022-12-18T02:17:39;101976.03;;;-9.43
72278;BMP280;61204;49.980;8.358;2022-12-18T02:20:20;101966.91;;;-9.42
72278;BMP280;61204;49.980;8.358;2022-12-18T02:23:42;101963.78;;;-9.34
72278;BMP280;61204;49.980;8.358;2022-12-18T02:26:30;101970.22;;;-9.31
72278;BMP280;61204;49.980;8.358;2022-12-18T02:29:21;101965.22;;;-9.29
72278;BMP280;61204;49.980;8.358;2022-12-18T02:31:56;101959.06;;;-9.19
72278;BMP280;61204;49.980;8.358;2022-12-18T02:34:28;101950.00;;;-9.21
72278;BMP280;61204;49.980;8.358;2022-12-18T02:36:59;101951.44;;;-9.13
72278;BMP280;61204;49.980;8.358;2022-12-18T02:39:32;101942.06;;;-9.25
72278;BMP280;61204;49.980;8.358;2022-12-18T02:42:01;101945.50;;;-9.28
72278;BMP280;61204;49.980;8.358;2022-12-18T02:44:33;101946.63;;;-9.25
72278;BMP280;61204;49.980;8.358;2022-12-18T02:47:10;101939.41;;;-9.25
72278;BMP280;61204;49.980;8.358;2022-12-18T02:50:02;101945.19;;;-9.34
72278;BMP280;61204;49.980;8.358;2022-12-18T02:52:49;101956.56;;;-9.37
72278;BMP280;61204;49.980;8.358;2022-12-18T02:58:52;101966.50;;;-9.41
72278;BMP280;61204;49.980;8.358;2022-12-18T03:01:55;101963.97;;;-9.51
72278;BMP280;61204;49.980;8.358;2022-12-18T03:05:12;101974.59;;;-9.55
72278;BMP280;61204;49.980;8.358;2022-12-18T03:08:10;101967.03;;;-9.57
72278;BMP280;61204;49.980;8.358;2022-12-18T03:10:54;101963.94;;;-9.48
72278;BMP280;61204;49.980;8.358;2022-12-18T03:13:52;101963.88;;;-9.44
72278;BMP280;61204;49.980;8.358;2022-12-18T03:16:28;101971.47;;;-9.43
72278;BMP280;61204;49.980;8.358;2022-12-18T03:18:59;101975.63;;;-9.42
72278;BMP280;61204;49.980;8.358;2022-12-18T03:21:33;101975.28;;;-9.44
72278;BMP280;61204;49.980;8.358;2022-12-18T03:24:09;101967.28;;;-9.40
72278;BMP280;61204;49.980;8.358;2022-12-18T03:26:38;101950.56;;;-9.41
72278;BMP280;61204;49.980;8.358;2022-12-18T03:29:14;101954.75;;;-9.40
72278;BMP280;61204;49.980;8.358;2022-12-18T03:32:02;101949.41;;;-9.36
72278;BMP280;61204;49.980;8.358;2022-12-18T03:34:37;101951.69;;;-9.38
72278;BMP280;61204;49.980;8.358;2022-12-18T03:37:07;101950.16;;;-9.36
72278;BMP280;61204;49.980;8.358;2022-12-18T03:39:34;101944.44;;;-9.34
72278;BMP280;61204;49.980;8.358;2022-12-18T03:45:32;101947.78;;;-9.26
72278;BMP280;61204;49.980;8.358;2022-12-18T03:48:20;101944.44;;;-9.38
72278;BMP280;61204;49.980;8.358;2022-12-18T03:51:07;101949.28;;;-9.29
72278;BMP280;61204;49.980;8.358;2022-12-18T03:53:52;101945.06;;;-9.23
72278;BMP280;61204;49.980;8.358;2022-12-18T03:56:33;101936.00;;;-9.25
72278;BMP280;61204;49.980;8.358;2022-12-18T03:59:05;101942.78;;;-9.21
72278;BMP280;61204;49.980;8.358;2022-12-18T04:01:36;101942.72;;;-9.14
72278;BMP280;61204;49.980;8.358;2022-12-18T04:04:08;101940.06;;;-9.14
72278;BMP280;61204;49.980;8.358;2022-12-18T04:06:37;101931.22;;;-9.07
72278;BMP280;61204;49.980;8.358;2022-12-18T04:09:06;101930.13;;;-9.10
72278;BMP280;61204;49.980;8.358;2022-12-18T04:11:32;101937.31;;;-9.10
72278;BMP280;61204;49.980;8.358;2022-12-18T04:13:58;101939.59;;;-9.09
72278;BMP280;61204;49.980;8.358;2022-12-18T04:16:25;101944.13;;;-9.05
72278;BMP280;61204;49.980;8.358;2022-12-18T04:18:51;101932.34;;;-9.04
72278;BMP280;61204;49.980;8.358;2022-12-18T04:21:18;101936.19;;;-9.09
72278;BMP280;61204;49.980;8.358;2022-12-18T04:23:44;101935.78;;;-9.07
72278;BMP280;61204;49.980;8.358;2022-12-18T04:26:09;101946.81;;;-9.09
72278;BMP280;61204;49.980;8.358;2022-12-18T04:28:35;101943.03;;;-9.08
72278;BMP280;61204;49.980;8.358;2022-12-18T04:31:01;101945.91;;;-8.99
72278;BMP280;61204;49.980;8.358;2022-12-18T04:33:26;101944.00;;;-8.95
72278;BMP280;61204;49.980;8.358;2022-12-18T04:35:52;101948.53;;;-8.95
72278;BMP280;61204;49.980;8.358;2022-12-18T04:38:17;101932.22;;;-8.94
72278;BMP280;61204;49.980;8.358;2022-12-18T04:40:43;101929.13;;;-8.92
72278;BMP280;61204;49.980;8.358;2022-12-18T04:43:08;101916.22;;;-8.90
72278;BMP280;61204;49.980;8.358;2022-12-18T04:45:34;101919.22;;;-8.88
72278;BMP280;61204;49.980;8.358;2022-12-18T04:48:00;101926.41;;;-8.85
72278;BMP280;61204;49.980;8.358;2022-12-18T04:50:27;101931.66;;;-8.81
72278;BMP280;61204;49.980;8.358;2022-12-18T04:52:54;101940.00;;;-8.79
72278;BMP280;61204;49.980;8.358;2022-12-18T04:55:19;101941.38;;;-8.68
72278;BMP280;61204;49.980;8.358;2022-12-18T04:57:45;101945.97;;;-8.68
72278;BMP280;61204;49.980;8.358;2022-12-18T05:00:11;101944.78;;;-8.67
72278;BMP280;61204;49.980;8.358;2022-12-18T05:02:37;101941.00;;;-8.70
72278;BMP280;61204;49.980;8.358;2022-12-18T05:05:03;101934.03;;;-8.60
72278;BMP280;61204;49.980;8.358;2022-12-18T05:07:29;101930.63;;;-8.60
72278;BMP280;61204;49.980;8.358;2022-12-18T05:09:54;101948.25;;;-8.43
72278;BMP280;61204;49.980;8.358;2022-12-18T05:12:20;101960.69;;;-8.36
72278;BMP280;61204;49.980;8.358;2022-12-18T05:14:45;101954.97;;;-8.35
72278;BMP280;61204;49.980;8.358;2022-12-18T05:17:11;101958.78;;;-8.36
72278;BMP280;61204;49.980;8.358;2022-12-18T05:19:37;101950.44;;;-8.38
72278;BMP280;61204;49.980;8.358;2022-12-18T05:22:03;101958.06;;;-8.40
72278;BMP280;61204;49.980;8.358;2022-12-18T05:24:28;101967.47;;;-8.32
72278;BMP280;61204;49.980;8.358;2022-12-18T05:26:54;101963.25;;;-8.29
72278;BMP280;61204;49.980;8.358;2022-12-18T05:29:19;101952.19;;;-8.28
72278;BMP280;61204;49.980;8.358;2022-12-18T05:31:45;101955.38;;;-8.36
72278;BMP280;61204;49.980;8.358;2022-12-18T05:34:10;101942.81;;;-8.36
72278;BMP280;61204;49.980;8.358;2022-12-18T05:36:36;101950.84;;;-8.39
72278;BMP280;61204;49.980;8.358;2022-12-18T05:39:01;101955.75;;;-8.38
72278;BMP280;61204;49.980;8.358;2022-12-18T05:41:27;101945.94;;;-8.41
72278;BMP280;61204;49.980;8.358;2022-12-18T05:43:53;101936.00;;;-8.37
72278;BMP280;61204;49.980;8.358;2022-12-18T05:46:19;101934.47;;;-8.38
72278;BMP280;61204;49.980;8.358;2022-12-18T05:48:45;101933.03;;;-8.43
72278;BMP280;61204;49.980;8.358;2022-12-18T05:51:12;101936.03;;;-8.40
72278;BMP280;61204;49.980;8.358;2022-12-18T05:53:40;101927.72;;;-8.43
72278;BMP280;61204;49.980;8.358;2022-12-18T05:56:07;101939.34;;;-8.33
72278;BMP280;61204;49.980;8.358;2022-12-18T05:58:38;101936.69;;;-8.33
72278;BMP280;61204;49.980;8.358;2022-12-18T06:01:12;101937.44;;;-8.32
72278;BMP280;61204;49.980;8.358;2022-12-18T06:03:43;101932.53;;;-8.34
72278;BMP280;61204;49.980;8.358;2022-12-18T06:06:12;101939.34;;;-8.33
72278;BMP280;61204;49.980;8.358;2022-12-18T06:08:47;101946.75;;;-8.44
72278;BMP280;61204;49.980;8.358;2022-12-18T06:11:15;101958.88;;;-8.43
72278;BMP280;61204;49.980;8.358;2022-12-18T06:13:44;101965.16;;;-8.57
72278;BMP280;61204;49.980;8.358;2022-12-18T06:16:10;101956.19;;;-8.67
72278;BMP280;61204;49.980;8.358;2022-12-18T06:18:36;101971.00;;;-8.69
72278;BMP280;61204;49.980;8.358;2022-12-18T06:21:02;101972.63;;;-8.75
72278;BMP280;61204;49.980;8.358;2022-12-18T06:23:27;101965.41;;;-8.75
72278;BMP280;61204;49.980;8.358;2022-12-18T06:25:53;101962.03;;;-8.79
72278;BMP280;61204;49.980;8.358;2022-12-18T06:28:19;101970.72;;;-8.75
72278;BMP280;61204;49.980;8.358;2022-12-18T06:30:45;101980.06;;;-8.63
72278;BMP280;61204;49.980;8.358;2022-12-18T06:33:13;101980.91;;;-8.43
72278;BMP280;61204;49.980;8.358;2022-12-18T06:35:39;101982.88;;;-8.47
72278;BMP280;61204;49.980;8.358;2022-12-18T06:38:05;101990.56;;;-8.52
72278;BMP280;61204;49.980;8.358;2022-12-18T06:40:31;101983.25;;;-8.45
72278;BMP280;61204;49.980;8.358;2022-12-18T06:42:56;101980.59;;;-8.45
72278;BMP280;61204;49.980;8.358;2022-12-18T06:45:22;101994.41;;;-8.57
72278;BMP280;61204;49.980;8.358;2022-12-18T06:47:47;101994.47;;;-8.60
72278;BMP280;61204;49.980;8.358;2022-12-18T06:50:13;101991.09;;;-8.65
72278;BMP280;61204;49.980;8.358;2022-12-18T06:52:39;101998.53;;;-8.52
72278;BMP280;61204;49.980;8.358;2022-12-18T06:55:05;101997.06;;;-8.57
72278;BMP280;61204;49.980;8.358;2022-12-18T06:57:35;101993.53;;;-8.47
72278;BMP280;61204;49.980;8.358;2022-12-18T07:00:02;101997.28;;;-8.44
72278;BMP280;61204;49.980;8.358;2022-12-18T07:02:32;102000.03;;;-8.51
72278;BMP280;61204;49.980;8.358;2022-12-18T07:04:58;101998.47;;;-8.49
72278;BMP280;61204;49.980;8.358;2022-12-18T07:07:23;101994.78;;;-8.55
72278;BMP280;61204;49.980;8.358;2022-12-18T07:09:49;101997.06;;;-8.57
72278;BMP280;61204;49.980;8.358;2022-12-18T07:12:16;102005.09;;;-8.60
72278;BMP280;61204;49.980;8.358;2022-12-18T07:14:42;102009.78;;;-8.68
72278;BMP280;61204;49.980;8.358;2022-12-18T07:17:07;102011.78;;;-8.76
72278;BMP280;61204;49.980;8.358;2022-12-18T07:19:33;102022.84;;;-8.84
72278;BMP280;61204;49.980;8.358;2022-12-18T07:21:59;102013.03;;;-8.88
72278;BMP280;61204;49.980;8.358;2022-12-18T07:24:25;102009.63;;;-8.92
72278;BMP280;61204;49.980;8.358;2022-12-18T07:26:51;102014.63;;;-8.94
72278;BMP280;61204;49.980;8.358;2022-12-18T07:29:16;102018.78;;;-8.93
72278;BMP280;61204;49.980;8.358;2022-12-18T07:31:42;102004.66;;;-8.86
72278;BMP280;61204;49.980;8.358;2022-12-18T07:34:11;102008.84;;;-8.89
72278;BMP280;61204;49.980;8.358;2022-12-18T07:36:39;101998.19;;;-8.89
72278;BMP280;61204;49.980;8.358;2022-12-18T07:39:05;101999.75;;;-8.91
72278;BMP280;61204;49.980;8.358;2022-12-18T07:41:30;102001.63;;;-8.88
72278;BMP280;61204;49.980;8.358;2022-12-18T07:43:56;102001.94;;;-8.82
72278;BMP280;61204;49.980;8.358;2022-12-18T07:46:21;101999.97;;;-8.75
72278;BMP280;61204;49.980;8.358;2022-12-18T07:48:47;102010.88;;;-8.69
72278;BMP280;61204;49.980;8.358;2022-12-18T07:51:13;102021.16;;;-8.68
72278;BMP280;61204;49.980;8.358;2022-12-18T07:53:39;102027.59;;;-8.69
72278;BMP280;61204;49.980;8.358;2022-12-18T07:56:09;102029.78;;;-8.56
72278;BMP280;61204;49.980;8.358;2022-12-18T07:58:37;102040.97;;;-8.42
72278;BMP280;61204;49.980;8.358;2022-12-18T08:01:03;102043.88;;;-8.32
72278;BMP280;61204;49.980;8.358;2022-12-18T08:03:30;102057.53;;;-8.30
72278;BMP280;61204;49.980;8.358;2022-12-18T08:05:59;102058.28;;;-8.26
72278;BMP280;61204;49.980;8.358;2022-12-18T08:08:31;102053.63;;;-8.22
72278;BMP280;61204;49.980;8.358;2022-12-18T08:10:58;102052.13;;;-7.96
72278;BMP280;61204;49.980;8.358;2022-12-18T08:13:25;102047.78;;;-7.86
72278;BMP280;61204;49.980;8.358;2022-12-18T08:15:55;102046.09;;;-7.30
72278;BMP280;61204;49.980;8.358;2022-12-18T08:18:26;102047.81;;;-6.79
72278;BMP280;61204;49.980;8.358;2022-12-18T08:20:52;102056.09;;;-6.38
72278;BMP280;61204;49.980;8.358;2022-12-18T08:23:17;102059.13;;;-6.03
72278;BMP280;61204;49.980;8.358;2022-12-18T08:25:43;102052.47;;;-5.95
72278;BMP280;61204;49.980;8.358;2022-12-18T08:28:09;102051.91;;;-5.40
72278;BMP280;61204;49.980;8.358;2022-12-18T08:30:35;102049.91;;;-5.24
72278;BMP280;61204;49.980;8.358;2022-12-18T08:33:00;102051.97;;;-5.15
72278;BMP280;61204;49.980;8.358;2022-12-18T08:35:26;102050.50;;;-5.03
72278;BMP280;61204;49.980;8.358;2022-12-18T08:37:52;102037.94;;;-4.77
72278;BMP280;61204;49.980;8.358;2022-12-18T08:40:17;102042.00;;;-4.72
72278;BMP280;61204;49.980;8.358;2022-12-18T08:42:42;102040.81;;;-4.71
72278;BMP280;61204;49.980;8.358;2022-12-18T08:45:27;102032.25;;;-4.66
72278;BMP280;61204;49.980;8.358;2022-12-18T08:47:52;102021.75;;;-4.48
72278;BMP280;61204;49.980;8.358;2022-12-18T08:50:19;102027.06;;;-4.22
72278;BMP280;61204;49.980;8.358;2022-12-18T08:52:44;102026.19;;;-4.07
72278;BMP280;61204;49.980;8.358;2022-12-18T08:55:10;102033.78;;;-3.92
72278;BMP280;61204;49.980;8.358;2022-12-18T08:57:35;102027.69;;;-3.93
72278;BMP280;61204;49.980;8.358;2022-12-18T09:00:01;102028.97;;;-3.41
72278;BMP280;61204;49.980;8.358;2022-12-18T09:02:28;102026.97;;;-3.71
72278;BMP280;61204;49.980;8.358;2022-12-18T09:04:54;102019.81;;;-3.74
72278;BMP280;61204;49.980;8.358;2022-12-18T09:07:19;102025.09;;;-3.18
72278;BMP280;61204;49.980;8.358;2022-12-18T09:09:44;102033.34;;;-2.72
72278;BMP280;61204;49.980;8.358;2022-12-18T09:12:10;102043.88;;;-2.86
72278;BMP280;61204;49.980;8.358;2022-12-18T09:14:35;102035.03;;;-2.65
72278;BMP280;61204;49.980;8.358;2022-12-18T09:17:01;102049.53;;;-2.53
72278;BMP280;61204;49.980;8.358;2022-12-18T09:19:26;102051.06;;;-2.74
72278;BMP280;61204;49.980;8.358;2022-12-18T09:21:52;102052.22;;;-2.44
72278;BMP280;61204;49.980;8.358;2022-12-18T09:24:17;102061.84;;;-2.15
72278;BMP280;61204;49.980;8.358;2022-12-18T09:26:43;102055.69;;;-2.34
72278;BMP280;61204;49.980;8.358;2022-12-18T09:29:09;102068.88;;;-1.90
72278;BMP280;61204;49.980;8.358;2022-12-18T09:31:35;102067.06;;;-2.30
72278;BMP280;61204;49.980;8.358;2022-12-18T09:34:05;102063.53;;;-1.63
72278;BMP280;61204;49.980;8.358;2022-12-18T09:36:31;102058.38;;;-1.24
72278;BMP280;61204;49.980;8.358;2022-12-18T09:38:57;102051.22;;;-0.85
72278;BMP280;61204;49.980;8.358;2022-12-18T09:44:29;102055.13;;;-0.62
72278;BMP280;61204;49.980;8.358;2022-12-18T09:47:07;102050.72;;;-0.74
72278;BMP280;61204;49.980;8.358;2022-12-18T09:49:47;102056.31;;;-0.87
72278;BMP280;61204;49.980;8.358;2022-12-18T09:52:37;102063.94;;;0.11
72278;BMP280;61204;49.980;8.358;2022-12-18T09:55:11;102051.81;;;-0.09
72278;BMP280;61204;49.980;8.358;2022-12-18T09:57:53;102051.50;;;-0.83
72278;BMP280;61204;49.980;8.358;2022-12-18T10:00:26;102053.94;;;-0.37
72278;BMP280;61204;49.980;8.358;2022-12-18T10:02:51;102045.72;;;-0.66
72278;BMP280;61204;49.980;8.358;2022-12-18T10:05:31;102059.25;;;-1.18
72278;BMP280;61204;49.980;8.358;2022-12-18T10:08:22;102047.56;;;-1.06
72278;BMP280;61204;49.980;8.358;2022-12-18T10:11:26;102058.22;;;-0.54
72278;BMP280;61204;49.980;8.358;2022-12-18T10:20:16;102036.41;;;0.07
72278;BMP280;61204;49.980;8.358;2022-12-18T10:26:01;102025.31;;;-1.15
72278;BMP280;61204;49.980;8.358;2022-12-18T10:28:31;102034.53;;;-1.59
72278;BMP280;61204;49.980;8.358;2022-12-18T10:31:01;102034.25;;;-1.79
72278;BMP280;61204;49.980;8.358;2022-12-18T10:33:28;102033.16;;;-1.63
72278;BMP280;61204;49.980;8.358;2022-12-18T10:36:00;102027.81;;;-1.91
72278;BMP280;61204;49.980;8.358;2022-12-18T10:38:29;102025.56;;;-2.11
72278;BMP280;61204;49.980;8.358;2022-12-18T10:46:42;102035.88;;;-2.19
72278;BMP280;61204;49.980;8.358;2022-12-18T10:49:46;102037.59;;;-2.43
72278;BMP280;61204;49.980;8.358;2022-12-18T10:52:20;102029.34;;;-2.58
72278;BMP280;61204;49.980;8.358;2022-12-18T10:54:51;102019.38;;;-2.57
72278;BMP280;61204;49.980;8.358;2022-12-18T11:00:23;102031.69;;;-2.20
72278;BMP280;61204;49.980;8.358;2022-12-18T11:02:53;102032.34;;;-2.47
72278;BMP280;61204;49.980;8.358;2022-12-18T11:05:27;102036.31;;;-1.92
72278;BMP280;61204;49.980;8.358;2022-12-18T11:07:59;102037.22;;;-1.96
72278;BMP280;61204;49.980;8.358;2022-12-18T11:10:30;102029.59;;;-1.88
72278;BMP280;61204;49.980;8.358;2022-12-18T11:13:10;102027.78;;;-1.63
72278;BMP280;61204;49.980;8.358;2022-12-18T11:15:42;102018.25;;;-2.01
72278;BMP280;61204;49.980;8.358;2022-12-18T11:18:15;102019.56;;;-1.60
72278;BMP280;61204;49.980;8.358;2022-12-18T11:20:51;102017.72;;;-1.26
72278;BMP280;61204;49.980;8.358;2022-12-18T11:23:24;102022.03;;;-0.86
72278;BMP280;61204;49.980;8.358;2022-12-18T11:25:55;102037.25;;;-0.50
72278;BMP280;61204;49.980;8.358;2022-12-18T11:29:10;102028.66;;;-0.63
72278;BMP280;61204;49.980;8.358;2022-12-18T11:31:33;102031.63;;;-1.28
72278;BMP280;61204;49.980;8.358;2022-12-18T11:34:12;102029.47;;;-1.66
72278;BMP280;61204;49.980;8.358;2022-12-18T11:36:53;102015.34;;;-1.52
72278;BMP280;61204;49.980;8.358;2022-12-18T11:42:10;102003.53;;;-0.93
72278;BMP280;61204;49.980;8.358;2022-12-18T11:44:49;102009.31;;;-1.19
72278;BMP280;61204;49.980;8.358;2022-12-18T11:47:22;102005.59;;;-0.88
72278;BMP280;61204;49.980;8.358;2022-12-18T11:50:01;102003.69;;;-1.30
72278;BMP280;61204;49.980;8.358;2022-12-18T11:52:39;102012.88;;;-1.83
72278;BMP280;61204;49.980;8.358;2022-12-18T12:21:42;101989.97;;;-2.61
72278;BMP280;61204;49.980;8.358;2022-12-18T12:32:32;101994.44;;;-2.58
72278;BMP280;61204;49.980;8.358;2022-12-18T12:39:01;101986.97;;;-2.63
72278;BMP280;61204;49.980;8.358;2022-12-18T12:41:37;101987.63;;;-2.90
72278;BMP280;61204;49.980;8.358;2022-12-18T12:44:26;101987.78;;;-2.94
72278;BMP280;61204;49.980;8.358;2022-12-18T12:47:00;101987.47;;;-2.96
72278;BMP280;61204;49.980;8.358;2022-12-18T12:49:53;101974.88;;;-3.08
72278;BMP280;61204;49.980;8.358;2022-12-18T12:52:34;101965.81;;;-3.01
72278;BMP280;61204;49.980;8.358;2022-12-18T12:55:13;101976.41;;;-2.98
72278;BMP280;61204;49.980;8.358;2022-12-18T12:58:27;101971.84;;;-2.79
72278;BMP280;61204;49.980;8.358;2022-12-18T13:01:12;101950.44;;;-3.10
72278;BMP280;61204;49.980;8.358;2022-12-18T13:03:48;101953.88;;;-3.00
72278;BMP280;61204;49.980;8.358;2022-12-18T13:07:11;101950.22;;;-3.25
72278;BMP280;61204;49.980;8.358;2022-12-18T13:13:12;101933.16;;;-3.40
72278;BMP280;61204;49.980;8.358;2022-12-18T13:18:33;101946.44;;;-3.37
72278;BMP280;61204;49.980;8.358;2022-12-18T13:25:51;101923.44;;;-3.16
72278;BMP280;61204;49.980;8.358;2022-12-18T13:34:17;101914.78;;;-3.20
72278;BMP280;61204;49.980;8.358;2022-12-18T13:36:47;101928.78;;;-3.25
72278;BMP280;61204;49.980;8.358;2022-12-18T13:41:43;101920.50;;;-3.40
72278;BMP280;61204;49.980;8.358;2022-12-18T13:44:34;101910.78;;;-3.46
72278;BMP280;61204;49.980;8.358;2022-12-18T13:47:05;101912.06;;;-3.51
72278;BMP280;61204;49.980;8.358;2022-12-18T13:49:56;101909.72;;;-3.49
72278;BMP280;61204;49.980;8.358;2022-12-18T13:52:24;101910.78;;;-3.46
72278;BMP280;61204;49.980;8.358;2022-12-18T13:54:54;101911.59;;;-3.58
72278;BMP280;61204;49.980;8.358;2022-12-18T13:57:37;101911.34;;;-3.51
72278;BMP280;61204;49.980;8.358;2022-12-18T14:02:55;101907.13;;;-3.62
72278;BMP280;61204;49.980;8.358;2022-12-18T14:05:32;101904.44;;;-3.62
72278;BMP280;61204;49.980;8.358;2022-12-18T14:08:05;101903.84;;;-3.56
72278;BMP280;61204;49.980;8.358;2022-12-18T14:10:40;101903.50;;;-3.68
72278;BMP280;61204;49.980;8.358;2022-12-18T14:13:08;101894.44;;;-3.61
72278;BMP280;61204;49.980;8.358;2022-12-18T14:15:42;101904.75;;;-3.60
72278;BMP280;61204;49.980;8.358;2022-12-18T14:21:03;101891.03;;;-3.62
72278;BMP280;61204;49.980;8.358;2022-12-18T14:23:34;101905.00;;;-3.67
72278;BMP280;61204;49.980;8.358;2022-12-18T14:28:54;101916.47;;;-3.66
72278;BMP280;61204;49.980;8.358;2022-12-18T14:31:22;101904.69;;;-3.69
72278;BMP280;61204;49.980;8.358;2022-12-18T14:33:51;101901.41;;;-3.73
72278;BMP280;61204;49.980;8.358;2022-12-18T14:36:18;101907.97;;;-3.74
72278;BMP280;61204;49.980;8.358;2022-12-18T14:38:51;101904.63;;;-3.78
72278;BMP280;61204;49.980;8.358;2022-12-18T14:41:19;101898.94;;;-3.80
72278;BMP280;61204;49.980;8.358;2022-12-18T14:43:47;101901.34;;;-3.82
72278;BMP280;61204;49.980;8.358;2022-12-18T14:46:29;101900.28;;;-3.85
72278;BMP280;61204;49.980;8.358;2022-12-18T14:52:02;101895.03;;;-3.88
72278;BMP280;61204;49.980;8.358;2022-12-18T14:54:31;101894.28;;;-3.89
72278;BMP280;61204;49.980;8.358;2022-12-18T14:59:27;101887.88;;;-3.91
72278;BMP280;61204;49.980;8.358;2022-12-18T15:04:46;101883.25;;;-3.91
72278;BMP280;61204;49.980;8.358;2022-12-18T15:07:22;101887.59;;;-3.93
72278;BMP280;61204;49.980;8.358;2022-12-18T15:12:43;101881.59;;;-3.97
72278;BMP280;61204;49.980;8.358;2022-12-18T15:20:33;101875.06;;;-3.96
72278;BMP280;61204;49.980;8.358;2022-12-18T15:23:23;101876.25;;;-3.97
72278;BMP280;61204;49.980;8.358;2022-12-18T15:26:16;101872.47;;;-4.00
72278;BMP280;61204;49.980;8.358;2022-12-18T15:28:46;101875.91;;;-3.99
72278;BMP280;61204;49.980;8.358;2022-12-18T15:36:18;101872.28;;;-4.06
72278;BMP280;61204;49.980;8.358;2022-12-18T15:38:47;101869.94;;;-4.03
72278;BMP280;61204;49.980;8.358;2022-12-18T15:41:15;101867.97;;;-4.03
72278;BMP280;61204;49.980;8.358;2022-12-18T15:43:43;101864.56;;;-4.03
72278;BMP280;61204;49.980;8.358;2022-12-18T15:46:14;101860.41;;;-4.04
72278;BMP280;61204;49.980;8.358;2022-12-18T15:48:48;101865.88;;;-4.08
72278;BMP280;61204;49.980;8.358;2022-12-18T15:53:52;101855.59;;;-4.10
72278;BMP280;61204;49.980;8.358;2022-12-18T15:56:24;101862.13;;;-4.11
72278;BMP280;61204;49.980;8.358;2022-12-18T15:59:14;101861.41;;;-4.11
72278;BMP280;61204;49.980;8.358;2022-12-18T16:01:43;101864.53;;;-4.13
72278;BMP280;61204;49.980;8.358;2022-12-18T16:04:12;101861.84;;;-4.13
72278;BMP280;61204;49.980;8.358;2022-12-18T16:06:40;101861.06;;;-4.13
72278;BMP280;61204;49.980;8.358;2022-12-18T16:09:06;101864.81;;;-4.11
72278;BMP280;61204;49.980;8.358;2022-12-18T16:11:32;101858.28;;;-4.10
72278;BMP280;61204;49.980;8.358;2022-12-18T16:14:12;101853.97;;;-4.07
72278;BMP280;61204;49.980;8.358;2022-12-18T16:16:45;101848.63;;;-4.07
72278;BMP280;61204;49.980;8.358;2022-12-18T16:19:17;101839.97;;;-4.11
72278;BMP280;61204;49.980;8.358;2022-12-18T16:21:43;101843.72;;;-4.09
72278;BMP280;61204;49.980;8.358;2022-12-18T16:24:17;101840.72;;;-4.11
72278;BMP280;61204;49.980;8.358;2022-12-18T16:26:48;101841.91;;;-4.12
72278;BMP280;61204;49.980;8.358;2022-12-18T16:29:19;101841.94;;;-4.02
72278;BMP280;61204;49.980;8.358;2022-12-18T16:31:49;101843.59;;;-4.05